sensor_id;sensor_type;location;lat;lon;timestamp;P1;durP1;ratioP1;P2;durP2;ratioP2
7989;SDS011;4040;42.848;23.034;2022-12-29T00:00:12;22.57;;;13.77;;
7989;SDS011;4040;42.848;23.034;2022-12-29T00:06:01;20.13;;;12.53;;
7989;SDS011;4040;42.848;23.034;2022-12-29T00:11:51;18.47;;;12.00;;
7989;SDS011;4040;42.848;23.034;2022-12-29T00:17:50;19.33;;;12.00;;
7989;SDS011;4040;42.848;23.034;2022-12-29T00:23:39;18.63;;;12.00;;
7989;SDS011;4040;42.848;23.034;2022-12-29T00:29:46;21.77;;;14.30;;
7989;SDS011;4040;42.848;23.034;2022-12-29T00:35:53;22.87;;;13.40;;
7989;SDS011;4040;42.848;23.034;2022-12-29T00:41:46;20.43;;;12.53;;
7989;SDS011;4040;42.848;23.034;2022-12-29T00:47:54;18.00;;;11.87;;
7989;SDS011;4040;42.848;23.034;2022-12-29T00:53:42;21.90;;;12.83;;
7989;SDS011;4040;42.848;23.034;2022-12-29T00:59:31;19.77;;;12.17;;
7989;SDS011;4040;42.848;23.034;2022-12-29T01:05:22;21.60;;;14.20;;
7989;SDS011;4040;42.848;23.034;2022-12-29T01:11:11;19.80;;;13.27;;
7989;SDS011;4040;42.848;23.034;2022-12-29T01:21:23;19.47;;;13.10;;
7989;SDS011;4040;42.848;23.034;2022-12-29T01:27:12;18.97;;;12.53;;
7989;SDS011;4040;42.848;23.034;2022-12-29T01:33:01;16.83;;;12.03;;
7989;SDS011;4040;42.848;23.034;2022-12-29T01:38:51;164.97;;;61.30;;
7989;SDS011;4040;42.848;23.034;2022-12-29T01:50:45;17.97;;;11.87;;
7989;SDS011;4040;42.848;23.034;2022-12-29T01:56:39;21.43;;;12.77;;
7989;SDS011;4040;42.848;23.034;2022-12-29T02:02:28;20.93;;;13.07;;
7989;SDS011;4040;42.848;23.034;2022-12-29T02:08:17;18.57;;;12.33;;
7989;SDS011;4040;42.848;23.034;2022-12-29T02:14:10;17.03;;;11.40;;
7989;SDS011;4040;42.848;23.034;2022-12-29T02:30:46;16.47;;;11.90;;
7989;SDS011;4040;42.848;23.034;2022-12-29T02:36:44;16.97;;;11.20;;
7989;SDS011;4040;42.848;23.034;2022-12-29T02:42:43;16.47;;;11.10;;
7989;SDS011;4040;42.848;23.034;2022-12-29T02:48:38;17.53;;;12.20;;
7989;SDS011;4040;42.848;23.034;2022-12-29T02:54:32;16.83;;;12.00;;
7989;SDS011;4040;42.848;23.034;2022-12-29T03:00:30;16.93;;;10.37;;
7989;SDS011;4040;42.848;23.034;2022-12-29T03:06:27;18.83;;;11.60;;
7989;SDS011;4040;42.848;23.034;2022-12-29T03:12:24;16.97;;;11.67;;
7989;SDS011;4040;42.848;23.034;2022-12-29T03:18:40;16.83;;;11.40;;
7989;SDS011;4040;42.848;23.034;2022-12-29T03:24:35;17.03;;;11.13;;
7989;SDS011;4040;42.848;23.034;2022-12-29T03:30:26;19.00;;;12.13;;
7989;SDS011;4040;42.848;23.034;2022-12-29T03:36:18;20.03;;;12.87;;
7989;SDS011;4040;42.848;23.034;2022-12-29T03:42:13;29.57;;;15.27;;
7989;SDS011;4040;42.848;23.034;2022-12-29T03:48:05;21.17;;;12.77;;
7989;SDS011;4040;42.848;23.034;2022-12-29T03:53:54;18.43;;;12.53;;
7989;SDS011;4040;42.848;23.034;2022-12-29T03:59:43;22.57;;;14.10;;
7989;SDS011;4040;42.848;23.034;2022-12-29T04:05:32;19.37;;;13.13;;
7989;SDS011;4040;42.848;23.034;2022-12-29T04:11:21;22.60;;;13.77;;
7989;SDS011;4040;42.848;23.034;2022-12-29T04:17:11;21.67;;;14.10;;
7989;SDS011;4040;42.848;23.034;2022-12-29T04:27:22;19.47;;;13.57;;
7989;SDS011;4040;42.848;23.034;2022-12-29T04:33:12;27.00;;;15.10;;
7989;SDS011;4040;42.848;23.034;2022-12-29T04:39:01;27.43;;;17.10;;
7989;SDS011;4040;42.848;23.034;2022-12-29T04:44:51;95.63;;;43.83;;
7989;SDS011;4040;42.848;23.034;2022-12-29T04:50:42;40.47;;;24.67;;
7989;SDS011;4040;42.848;23.034;2022-12-29T04:56:31;28.57;;;16.43;;
7989;SDS011;4040;42.848;23.034;2022-12-29T05:02:20;28.30;;;15.97;;
7989;SDS011;4040;42.848;23.034;2022-12-29T05:08:10;35.70;;;17.77;;
7989;SDS011;4040;42.848;23.034;2022-12-29T05:13:58;26.80;;;17.47;;
7989;SDS011;4040;42.848;23.034;2022-12-29T05:19:47;24.17;;;16.50;;
7989;SDS011;4040;42.848;23.034;2022-12-29T05:29:59;32.17;;;21.30;;
7989;SDS011;4040;42.848;23.034;2022-12-29T05:35:48;40.63;;;20.20;;
7989;SDS011;4040;42.848;23.034;2022-12-29T05:41:36;91.10;;;33.87;;
7989;SDS011;4040;42.848;23.034;2022-12-29T05:47:26;79.67;;;37.20;;
7989;SDS011;4040;42.848;23.034;2022-12-29T05:53:14;42.07;;;21.77;;
7989;SDS011;4040;42.848;23.034;2022-12-29T05:59:03;36.03;;;22.07;;
7989;SDS011;4040;42.848;23.034;2022-12-29T06:04:54;34.73;;;19.37;;
7989;SDS011;4040;42.848;23.034;2022-12-29T06:10:42;33.57;;;20.40;;
7989;SDS011;4040;42.848;23.034;2022-12-29T06:16:31;39.57;;;21.30;;
7989;SDS011;4040;42.848;23.034;2022-12-29T06:22:21;33.33;;;19.27;;
7989;SDS011;4040;42.848;23.034;2022-12-29T06:32:31;21.67;;;14.13;;
7989;SDS011;4040;42.848;23.034;2022-12-29T06:38:22;25.50;;;15.97;;
7989;SDS011;4040;42.848;23.034;2022-12-29T06:44:10;31.13;;;18.63;;
7989;SDS011;4040;42.848;23.034;2022-12-29T06:49:59;36.63;;;20.23;;
7989;SDS011;4040;42.848;23.034;2022-12-29T06:55:49;27.57;;;16.77;;
7989;SDS011;4040;42.848;23.034;2022-12-29T07:01:38;24.70;;;15.63;;
7989;SDS011;4040;42.848;23.034;2022-12-29T07:07:27;34.07;;;16.23;;
7989;SDS011;4040;42.848;23.034;2022-12-29T07:13:17;26.03;;;16.13;;
7989;SDS011;4040;42.848;23.034;2022-12-29T07:19:06;31.23;;;16.20;;
7989;SDS011;4040;42.848;23.034;2022-12-29T07:24:55;32.83;;;17.93;;
7989;SDS011;4040;42.848;23.034;2022-12-29T07:35:07;24.40;;;15.97;;
7989;SDS011;4040;42.848;23.034;2022-12-29T07:40:56;27.60;;;16.67;;
7989;SDS011;4040;42.848;23.034;2022-12-29T07:46:46;26.00;;;15.50;;
7989;SDS011;4040;42.848;23.034;2022-12-29T07:52:36;24.07;;;16.33;;
7989;SDS011;4040;42.848;23.034;2022-12-29T07:58:25;30.50;;;16.90;;
7989;SDS011;4040;42.848;23.034;2022-12-29T08:04:14;26.00;;;15.23;;
7989;SDS011;4040;42.848;23.034;2022-12-29T08:10:05;23.50;;;15.67;;
7989;SDS011;4040;42.848;23.034;2022-12-29T08:15:54;23.53;;;14.43;;
7989;SDS011;4040;42.848;23.034;2022-12-29T08:21:45;29.33;;;15.27;;
7989;SDS011;4040;42.848;23.034;2022-12-29T08:27:35;22.87;;;13.07;;
7989;SDS011;4040;42.848;23.034;2022-12-29T08:37:45;22.93;;;14.40;;
7989;SDS011;4040;42.848;23.034;2022-12-29T08:43:35;26.17;;;17.13;;
7989;SDS011;4040;42.848;23.034;2022-12-29T08:49:23;22.30;;;15.93;;
7989;SDS011;4040;42.848;23.034;2022-12-29T08:55:12;16.70;;;10.80;;
7989;SDS011;4040;42.848;23.034;2022-12-29T09:01:02;26.73;;;15.10;;
7989;SDS011;4040;42.848;23.034;2022-12-29T09:06:51;13.60;;;9.23;;
7989;SDS011;4040;42.848;23.034;2022-12-29T09:12:40;17.97;;;11.20;;
7989;SDS011;4040;42.848;23.034;2022-12-29T09:18:31;12.93;;;8.50;;
7989;SDS011;4040;42.848;23.034;2022-12-29T09:24:19;18.17;;;10.93;;
7989;SDS011;4040;42.848;23.034;2022-12-29T09:30:09;17.37;;;10.77;;
7989;SDS011;4040;42.848;23.034;2022-12-29T09:40:26;17.40;;;11.23;;
7989;SDS011;4040;42.848;23.034;2022-12-29T09:46:19;17.87;;;9.77;;
7989;SDS011;4040;42.848;23.034;2022-12-29T09:52:14;21.87;;;10.80;;
7989;SDS011;4040;42.848;23.034;2022-12-29T09:58:10;13.57;;;9.60;;
7989;SDS011;4040;42.848;23.034;2022-12-29T10:04:03;20.33;;;11.43;;
7989;SDS011;4040;42.848;23.034;2022-12-29T10:09:53;19.23;;;11.53;;
7989;SDS011;4040;42.848;23.034;2022-12-29T10:15:56;16.00;;;10.23;;
7989;SDS011;4040;42.848;23.034;2022-12-29T10:21:54;17.17;;;11.40;;
7989;SDS011;4040;42.848;23.034;2022-12-29T10:27:57;18.43;;;12.10;;
7989;SDS011;4040;42.848;23.034;2022-12-29T10:33:53;23.47;;;14.03;;
7989;SDS011;4040;42.848;23.034;2022-12-29T10:39:46;27.83;;;14.80;;
7989;SDS011;4040;42.848;23.034;2022-12-29T10:45:37;25.37;;;15.47;;
7989;SDS011;4040;42.848;23.034;2022-12-29T10:51:29;33.20;;;17.53;;
7989;SDS011;4040;42.848;23.034;2022-12-29T10:57:25;29.20;;;17.03;;
7989;SDS011;4040;42.848;23.034;2022-12-29T11:03:21;27.60;;;16.37;;
7989;SDS011;4040;42.848;23.034;2022-12-29T11:09:36;30.90;;;15.40;;
7989;SDS011;4040;42.848;23.034;2022-12-29T11:15:26;18.27;;;12.10;;
7989;SDS011;4040;42.848;23.034;2022-12-29T11:21:25;20.20;;;11.90;;
7989;SDS011;4040;42.848;23.034;2022-12-29T11:27:21;19.03;;;11.77;;
7989;SDS011;4040;42.848;23.034;2022-12-29T11:33:11;26.40;;;14.57;;
7989;SDS011;4040;42.848;23.034;2022-12-29T11:43:23;17.55;;;10.88;;
7989;SDS011;4040;42.848;23.034;2022-12-29T11:49:19;21.77;;;13.43;;
7989;SDS011;4040;42.848;23.034;2022-12-29T11:55:16;24.30;;;14.48;;
7989;SDS011;4040;42.848;23.034;2022-12-29T12:01:10;23.77;;;13.95;;
7989;SDS011;4040;42.848;23.034;2022-12-29T12:07:03;24.67;;;16.02;;
7989;SDS011;4040;42.848;23.034;2022-12-29T12:13:05;22.38;;;13.73;;
7989;SDS011;4040;42.848;23.034;2022-12-29T12:19:04;32.78;;;18.17;;
7989;SDS011;4040;42.848;23.034;2022-12-29T12:25:19;51.43;;;26.13;;
7989;SDS011;4040;42.848;23.034;2022-12-29T12:31:19;32.23;;;19.70;;
7989;SDS011;4040;42.848;23.034;2022-12-29T12:37:22;30.60;;;16.60;;
7989;SDS011;4040;42.848;23.034;2022-12-29T12:43:35;24.17;;;16.57;;
7989;SDS011;4040;42.848;23.034;2022-12-29T12:49:41;26.10;;;16.40;;
7989;SDS011;4040;42.848;23.034;2022-12-29T13:02:36;52.23;;;26.50;;
7989;SDS011;4040;42.848;23.034;2022-12-29T13:11:42;45.90;;;23.93;;
7989;SDS011;4040;42.848;23.034;2022-12-29T13:17:45;32.17;;;18.57;;
7989;SDS011;4040;42.848;23.034;2022-12-29T13:23:41;36.63;;;20.10;;
7989;SDS011;4040;42.848;23.034;2022-12-29T13:29:39;39.20;;;22.80;;
7989;SDS011;4040;42.848;23.034;2022-12-29T13:35:41;32.57;;;20.83;;
7989;SDS011;4040;42.848;23.034;2022-12-29T13:46:15;29.00;;;16.47;;
7989;SDS011;4040;42.848;23.034;2022-12-29T13:52:11;36.27;;;23.40;;
7989;SDS011;4040;42.848;23.034;2022-12-29T13:58:09;30.63;;;18.23;;
7989;SDS011;4040;42.848;23.034;2022-12-29T14:04:09;33.97;;;20.33;;
7989;SDS011;4040;42.848;23.034;2022-12-29T14:10:01;33.80;;;22.20;;
7989;SDS011;4040;42.848;23.034;2022-12-29T14:15:50;25.97;;;18.33;;
7989;SDS011;4040;42.848;23.034;2022-12-29T14:21:48;32.10;;;20.63;;
7989;SDS011;4040;42.848;23.034;2022-12-29T14:34:15;49.73;;;25.17;;
7989;SDS011;4040;42.848;23.034;2022-12-29T14:40:16;40.70;;;25.60;;
7989;SDS011;4040;42.848;23.034;2022-12-29T14:46:08;78.63;;;38.93;;
7989;SDS011;4040;42.848;23.034;2022-12-29T14:52:04;83.60;;;38.53;;
7989;SDS011;4040;42.848;23.034;2022-12-29T14:57:57;58.70;;;32.37;;
7989;SDS011;4040;42.848;23.034;2022-12-29T15:03:50;79.47;;;36.03;;
7989;SDS011;4040;42.848;23.034;2022-12-29T15:09:43;52.07;;;26.57;;
7989;SDS011;4040;42.848;23.034;2022-12-29T15:15:36;101.20;;;42.93;;
7989;SDS011;4040;42.848;23.034;2022-12-29T15:21:28;281.67;;;114.97;;
7989;SDS011;4040;42.848;23.034;2022-12-29T15:27:19;244.53;;;86.13;;
7989;SDS011;4040;42.848;23.034;2022-12-29T15:33:17;124.63;;;51.60;;
7989;SDS011;4040;42.848;23.034;2022-12-29T15:39:18;152.80;;;69.60;;
7989;SDS011;4040;42.848;23.034;2022-12-29T15:49:29;110.53;;;56.33;;
7989;SDS011;4040;42.848;23.034;2022-12-29T15:55:21;96.70;;;45.03;;
7989;SDS011;4040;42.848;23.034;2022-12-29T16:01:18;48.23;;;21.87;;
7989;SDS011;4040;42.848;23.034;2022-12-29T16:07:22;138.13;;;54.60;;
7989;SDS011;4040;42.848;23.034;2022-12-29T16:13:15;206.60;;;79.40;;
7989;SDS011;4040;42.848;23.034;2022-12-29T16:19:10;202.37;;;74.03;;
7989;SDS011;4040;42.848;23.034;2022-12-29T16:25:02;97.13;;;43.20;;
7989;SDS011;4040;42.848;23.034;2022-12-29T16:30:59;62.30;;;33.20;;
7989;SDS011;4040;42.848;23.034;2022-12-29T16:36:54;89.53;;;43.20;;
7989;SDS011;4040;42.848;23.034;2022-12-29T16:42:45;64.93;;;29.07;;
7989;SDS011;4040;42.848;23.034;2022-12-29T16:48:36;43.13;;;23.80;;
7989;SDS011;4040;42.848;23.034;2022-12-29T16:54:35;73.17;;;36.97;;
7989;SDS011;4040;42.848;23.034;2022-12-29T17:00:27;47.90;;;25.10;;
7989;SDS011;4040;42.848;23.034;2022-12-29T17:06:24;35.80;;;18.67;;
7989;SDS011;4040;42.848;23.034;2022-12-29T17:12:13;38.10;;;22.77;;
7989;SDS011;4040;42.848;23.034;2022-12-29T17:18:04;41.77;;;21.77;;
7989;SDS011;4040;42.848;23.034;2022-12-29T17:23:55;63.23;;;34.73;;
7989;SDS011;4040;42.848;23.034;2022-12-29T17:29:43;85.97;;;42.70;;
7989;SDS011;4040;42.848;23.034;2022-12-29T17:35:32;162.43;;;66.50;;
7989;SDS011;4040;42.848;23.034;2022-12-29T17:41:22;199.97;;;76.57;;
7989;SDS011;4040;42.848;23.034;2022-12-29T17:51:22;65.13;;;32.60;;
7989;SDS011;4040;42.848;23.034;2022-12-29T17:57:13;79.13;;;35.60;;
7989;SDS011;4040;42.848;23.034;2022-12-29T18:03:03;61.70;;;32.70;;
7989;SDS011;4040;42.848;23.034;2022-12-29T18:08:51;158.10;;;65.10;;
7989;SDS011;4040;42.848;23.034;2022-12-29T18:14:41;79.43;;;34.53;;
7989;SDS011;4040;42.848;23.034;2022-12-29T18:20:30;27.63;;;18.33;;
7989;SDS011;4040;42.848;23.034;2022-12-29T18:26:20;134.47;;;59.80;;
7989;SDS011;4040;42.848;23.034;2022-12-29T18:32:12;149.33;;;57.43;;
7989;SDS011;4040;42.848;23.034;2022-12-29T18:38:01;81.50;;;37.17;;
7989;SDS011;4040;42.848;23.034;2022-12-29T18:43:51;69.67;;;31.13;;
7989;SDS011;4040;42.848;23.034;2022-12-29T18:50:11;46.33;;;24.07;;
7989;SDS011;4040;42.848;23.034;2022-12-29T18:56:00;44.83;;;23.67;;
7989;SDS011;4040;42.848;23.034;2022-12-29T19:01:49;149.70;;;66.40;;
7989;SDS011;4040;42.848;23.034;2022-12-29T19:07:39;104.00;;;49.37;;
7989;SDS011;4040;42.848;23.034;2022-12-29T19:13:28;69.70;;;28.03;;
7989;SDS011;4040;42.848;23.034;2022-12-29T19:19:17;49.47;;;27.70;;
7989;SDS011;4040;42.848;23.034;2022-12-29T19:25:07;146.17;;;65.20;;
7989;SDS011;4040;42.848;23.034;2022-12-29T19:30:57;119.93;;;48.43;;
7989;SDS011;4040;42.848;23.034;2022-12-29T19:36:48;145.33;;;53.17;;
7989;SDS011;4040;42.848;23.034;2022-12-29T19:42:38;142.30;;;54.00;;
7989;SDS011;4040;42.848;23.034;2022-12-29T19:48:26;116.00;;;54.50;;
7989;SDS011;4040;42.848;23.034;2022-12-29T19:54:15;63.37;;;33.40;;
7989;SDS011;4040;42.848;23.034;2022-12-29T20:00:06;116.13;;;48.67;;
7989;SDS011;4040;42.848;23.034;2022-12-29T20:05:55;168.67;;;74.13;;
7989;SDS011;4040;42.848;23.034;2022-12-29T20:11:44;132.53;;;59.57;;
7989;SDS011;4040;42.848;23.034;2022-12-29T20:17:34;126.50;;;64.07;;
7989;SDS011;4040;42.848;23.034;2022-12-29T20:23:22;78.17;;;45.83;;
7989;SDS011;4040;42.848;23.034;2022-12-29T20:29:12;107.40;;;49.50;;
7989;SDS011;4040;42.848;23.034;2022-12-29T20:35:03;85.33;;;46.73;;
7989;SDS011;4040;42.848;23.034;2022-12-29T20:40:52;137.67;;;70.23;;
7989;SDS011;4040;42.848;23.034;2022-12-29T20:46:40;147.93;;;67.00;;
7989;SDS011;4040;42.848;23.034;2022-12-29T20:56:53;84.30;;;41.43;;
7989;SDS011;4040;42.848;23.034;2022-12-29T21:02:42;49.07;;;27.13;;
7989;SDS011;4040;42.848;23.034;2022-12-29T21:08:31;43.90;;;23.13;;
7989;SDS011;4040;42.848;23.034;2022-12-29T21:14:21;67.80;;;31.97;;
7989;SDS011;4040;42.848;23.034;2022-12-29T21:20:11;100.33;;;45.10;;
7989;SDS011;4040;42.848;23.034;2022-12-29T21:26:05;68.43;;;35.43;;
7989;SDS011;4040;42.848;23.034;2022-12-29T21:31:57;115.97;;;52.07;;
7989;SDS011;4040;42.848;23.034;2022-12-29T21:37:48;307.77;;;111.77;;
7989;SDS011;4040;42.848;23.034;2022-12-29T21:43:37;162.37;;;69.10;;
7989;SDS011;4040;42.848;23.034;2022-12-29T21:49:27;150.07;;;59.57;;
7989;SDS011;4040;42.848;23.034;2022-12-29T21:59:38;56.33;;;28.53;;
7989;SDS011;4040;42.848;23.034;2022-12-29T22:05:45;52.90;;;28.60;;
7989;SDS011;4040;42.848;23.034;2022-12-29T22:11:51;53.93;;;29.20;;
7989;SDS011;4040;42.848;23.034;2022-12-29T22:17:58;53.17;;;28.37;;
7989;SDS011;4040;42.848;23.034;2022-12-29T22:23:49;49.07;;;27.70;;
7989;SDS011;4040;42.848;23.034;2022-12-29T22:29:37;45.07;;;26.73;;
7989;SDS011;4040;42.848;23.034;2022-12-29T22:35:27;59.17;;;32.87;;
7989;SDS011;4040;42.848;23.034;2022-12-29T22:41:17;60.37;;;28.90;;
7989;SDS011;4040;42.848;23.034;2022-12-29T22:47:06;68.70;;;32.90;;
7989;SDS011;4040;42.848;23.034;2022-12-29T22:52:55;67.30;;;31.97;;
7989;SDS011;4040;42.848;23.034;2022-12-29T23:08:29;70.90;;;31.57;;
7989;SDS011;4040;42.848;23.034;2022-12-29T23:14:19;73.40;;;35.57;;
7989;SDS011;4040;42.848;23.034;2022-12-29T23:20:08;62.67;;;31.90;;
7989;SDS011;4040;42.848;23.034;2022-12-29T23:26:00;54.47;;;29.00;;
7989;SDS011;4040;42.848;23.034;2022-12-29T23:31:49;47.37;;;27.07;;
7989;SDS011;4040;42.848;23.034;2022-12-29T23:37:38;51.80;;;26.27;;
7989;SDS011;4040;42.848;23.034;2022-12-29T23:43:28;49.33;;;27.97;;
7989;SDS011;4040;42.848;23.034;2022-12-29T23:49:16;67.23;;;35.67;;
7989;SDS011;4040;42.848;23.034;2022-12-29T23:55:05;56.30;;;29.37;;
